sensor_id;sensor_type;location;lat;lon;timestamp;P1;durP1;ratioP1;P2;durP2;ratioP2
4646;SDS011;2336;47.822;7.564;2023-07-02T00:01:51;3.00;;;2.67;;
4646;SDS011;2336;47.822;7.564;2023-07-02T00:04:17;2.60;;;2.50;;
4646;SDS011;2336;47.822;7.564;2023-07-02T00:06:46;2.50;;;2.40;;
4646;SDS011;2336;47.822;7.564;2023-07-02T00:09:13;3.83;;;2.77;;
4646;SDS011;2336;47.822;7.564;2023-07-02T00:11:43;3.00;;;2.73;;
4646;SDS011;2336;47.822;7.564;2023-07-02T00:14:11;2.70;;;2.53;;
4646;SDS011;2336;47.822;7.564;2023-07-02T00:16:39;2.70;;;2.37;;
4646;SDS011;2336;47.822;7.564;2023-07-02T00:19:09;2.70;;;2.50;;
4646;SDS011;2336;47.822;7.564;2023-07-02T00:21:36;2.87;;;2.77;;
4646;SDS011;2336;47.822;7.564;2023-07-02T00:24:04;2.77;;;2.67;;
4646;SDS011;2336;47.822;7.564;2023-07-02T00:26:31;2.00;;;2.00;;
4646;SDS011;2336;47.822;7.564;2023-07-02T00:28:59;4.20;;;3.30;;
4646;SDS011;2336;47.822;7.564;2023-07-02T00:31:25;2.83;;;2.73;;
4646;SDS011;2336;47.822;7.564;2023-07-02T00:33:52;2.87;;;2.67;;
4646;SDS011;2336;47.822;7.564;2023-07-02T00:36:19;3.50;;;3.10;;
4646;SDS011;2336;47.822;7.564;2023-07-02T00:38:46;2.70;;;2.60;;
4646;SDS011;2336;47.822;7.564;2023-07-02T00:41:13;2.83;;;2.70;;
4646;SDS011;2336;47.822;7.564;2023-07-02T00:43:41;2.70;;;2.60;;
4646;SDS011;2336;47.822;7.564;2023-07-02T00:46:10;3.07;;;2.97;;
4646;SDS011;2336;47.822;7.564;2023-07-02T00:48:39;2.90;;;2.80;;
4646;SDS011;2336;47.822;7.564;2023-07-02T00:51:06;3.70;;;3.40;;
4646;SDS011;2336;47.822;7.564;2023-07-02T00:53:33;3.03;;;2.90;;
4646;SDS011;2336;47.822;7.564;2023-07-02T00:56:00;3.73;;;3.50;;
4646;SDS011;2336;47.822;7.564;2023-07-02T00:58:27;3.40;;;3.20;;
4646;SDS011;2336;47.822;7.564;2023-07-02T01:00:54;3.37;;;3.17;;
4646;SDS011;2336;47.822;7.564;2023-07-02T01:03:23;3.63;;;3.33;;
4646;SDS011;2336;47.822;7.564;2023-07-02T01:05:50;4.93;;;3.27;;
4646;SDS011;2336;47.822;7.564;2023-07-02T01:08:17;2.97;;;2.77;;
4646;SDS011;2336;47.822;7.564;2023-07-02T01:10:43;3.67;;;3.47;;
4646;SDS011;2336;47.822;7.564;2023-07-02T01:13:11;3.70;;;3.50;;
4646;SDS011;2336;47.822;7.564;2023-07-02T01:15:43;3.87;;;3.57;;
4646;SDS011;2336;47.822;7.564;2023-07-02T01:18:11;9.33;;;3.80;;
4646;SDS011;2336;47.822;7.564;2023-07-02T01:20:41;3.80;;;3.60;;
4646;SDS011;2336;47.822;7.564;2023-07-02T01:23:08;3.93;;;3.70;;
4646;SDS011;2336;47.822;7.564;2023-07-02T01:25:35;4.20;;;3.90;;
4646;SDS011;2336;47.822;7.564;2023-07-02T01:28:02;4.40;;;4.10;;
4646;SDS011;2336;47.822;7.564;2023-07-02T01:30:29;3.50;;;3.30;;
4646;SDS011;2336;47.822;7.564;2023-07-02T01:32:56;5.20;;;2.93;;
4646;SDS011;2336;47.822;7.564;2023-07-02T01:35:23;4.07;;;3.87;;
4646;SDS011;2336;47.822;7.564;2023-07-02T01:37:51;3.73;;;3.53;;
4646;SDS011;2336;47.822;7.564;2023-07-02T01:40:18;9.90;;;4.20;;
4646;SDS011;2336;47.822;7.564;2023-07-02T01:42:45;4.47;;;4.23;;
4646;SDS011;2336;47.822;7.564;2023-07-02T01:45:12;3.93;;;3.73;;
4646;SDS011;2336;47.822;7.564;2023-07-02T01:47:38;4.93;;;4.53;;
4646;SDS011;2336;47.822;7.564;2023-07-02T01:50:05;3.80;;;3.70;;
4646;SDS011;2336;47.822;7.564;2023-07-02T01:52:33;4.20;;;3.90;;
4646;SDS011;2336;47.822;7.564;2023-07-02T01:55:01;4.43;;;3.90;;
4646;SDS011;2336;47.822;7.564;2023-07-02T01:57:28;4.63;;;3.93;;
4646;SDS011;2336;47.822;7.564;2023-07-02T01:59:55;5.07;;;4.30;;
4646;SDS011;2336;47.822;7.564;2023-07-02T02:02:23;6.50;;;3.83;;
4646;SDS011;2336;47.822;7.564;2023-07-02T02:04:49;6.00;;;4.20;;
4646;SDS011;2336;47.822;7.564;2023-07-02T02:07:16;3.77;;;3.50;;
4646;SDS011;2336;47.822;7.564;2023-07-02T02:09:43;4.23;;;3.80;;
4646;SDS011;2336;47.822;7.564;2023-07-02T02:12:11;4.40;;;3.90;;
4646;SDS011;2336;47.822;7.564;2023-07-02T02:14:39;5.93;;;4.00;;
4646;SDS011;2336;47.822;7.564;2023-07-02T02:17:06;5.73;;;4.07;;
4646;SDS011;2336;47.822;7.564;2023-07-02T02:19:32;4.17;;;3.87;;
4646;SDS011;2336;47.822;7.564;2023-07-02T02:21:59;4.67;;;4.27;;
4646;SDS011;2336;47.822;7.564;2023-07-02T02:24:26;4.57;;;4.00;;
4646;SDS011;2336;47.822;7.564;2023-07-02T02:26:52;4.20;;;3.97;;
4646;SDS011;2336;47.822;7.564;2023-07-02T02:29:20;4.27;;;3.97;;
4646;SDS011;2336;47.822;7.564;2023-07-02T02:31:47;5.07;;;4.67;;
4646;SDS011;2336;47.822;7.564;2023-07-02T02:34:14;4.43;;;4.13;;
4646;SDS011;2336;47.822;7.564;2023-07-02T02:36:40;4.83;;;4.33;;
4646;SDS011;2336;47.822;7.564;2023-07-02T02:39:07;3.97;;;3.80;;
4646;SDS011;2336;47.822;7.564;2023-07-02T02:41:34;4.67;;;3.97;;
4646;SDS011;2336;47.822;7.564;2023-07-02T02:44:00;9.10;;;4.80;;
4646;SDS011;2336;47.822;7.564;2023-07-02T02:46:28;5.30;;;4.80;;
4646;SDS011;2336;47.822;7.564;2023-07-02T02:48:55;4.47;;;4.07;;
4646;SDS011;2336;47.822;7.564;2023-07-02T02:51:22;8.20;;;4.27;;
4646;SDS011;2336;47.822;7.564;2023-07-02T02:53:49;5.77;;;4.00;;
4646;SDS011;2336;47.822;7.564;2023-07-02T02:56:15;4.43;;;4.00;;
4646;SDS011;2336;47.822;7.564;2023-07-02T02:58:43;4.40;;;4.00;;
4646;SDS011;2336;47.822;7.564;2023-07-02T03:01:10;5.73;;;4.30;;
4646;SDS011;2336;47.822;7.564;2023-07-02T03:03:39;6.83;;;4.60;;
4646;SDS011;2336;47.822;7.564;2023-07-02T03:06:10;5.20;;;4.80;;
4646;SDS011;2336;47.822;7.564;2023-07-02T03:08:38;6.30;;;5.70;;
4646;SDS011;2336;47.822;7.564;2023-07-02T03:11:05;6.47;;;5.97;;
4646;SDS011;2336;47.822;7.564;2023-07-02T03:13:32;7.60;;;6.90;;
4646;SDS011;2336;47.822;7.564;2023-07-02T03:15:59;8.47;;;7.67;;
4646;SDS011;2336;47.822;7.564;2023-07-02T03:18:25;10.80;;;7.40;;
4646;SDS011;2336;47.822;7.564;2023-07-02T03:20:53;8.10;;;7.37;;
4646;SDS011;2336;47.822;7.564;2023-07-02T03:23:20;10.30;;;7.33;;
4646;SDS011;2336;47.822;7.564;2023-07-02T03:25:47;8.33;;;7.53;;
4646;SDS011;2336;47.822;7.564;2023-07-02T03:28:13;9.50;;;7.03;;
4646;SDS011;2336;47.822;7.564;2023-07-02T03:30:40;8.50;;;7.60;;
4646;SDS011;2336;47.822;7.564;2023-07-02T03:33:08;10.80;;;7.53;;
4646;SDS011;2336;47.822;7.564;2023-07-02T03:35:35;9.10;;;8.00;;
4646;SDS011;2336;47.822;7.564;2023-07-02T03:38:03;12.73;;;8.63;;
4646;SDS011;2336;47.822;7.564;2023-07-02T03:40:30;13.73;;;8.60;;
4646;SDS011;2336;47.822;7.564;2023-07-02T03:42:57;14.00;;;9.30;;
4646;SDS011;2336;47.822;7.564;2023-07-02T03:45:23;11.13;;;8.80;;
4646;SDS011;2336;47.822;7.564;2023-07-02T03:47:50;10.83;;;8.83;;
4646;SDS011;2336;47.822;7.564;2023-07-02T03:50:17;16.77;;;10.17;;
4646;SDS011;2336;47.822;7.564;2023-07-02T03:52:44;10.53;;;8.90;;
4646;SDS011;2336;47.822;7.564;2023-07-02T03:55:12;13.10;;;9.73;;
4646;SDS011;2336;47.822;7.564;2023-07-02T03:57:38;12.50;;;10.00;;
4646;SDS011;2336;47.822;7.564;2023-07-02T04:00:06;12.77;;;11.00;;
4646;SDS011;2336;47.822;7.564;2023-07-02T04:02:35;18.83;;;11.60;;
4646;SDS011;2336;47.822;7.564;2023-07-02T04:05:01;13.27;;;11.00;;
4646;SDS011;2336;47.822;7.564;2023-07-02T04:07:29;13.23;;;11.70;;
4646;SDS011;2336;47.822;7.564;2023-07-02T04:09:56;16.80;;;11.67;;
4646;SDS011;2336;47.822;7.564;2023-07-02T04:12:24;19.00;;;12.30;;
4646;SDS011;2336;47.822;7.564;2023-07-02T04:14:50;18.30;;;12.93;;
4646;SDS011;2336;47.822;7.564;2023-07-02T04:17:17;16.37;;;12.87;;
4646;SDS011;2336;47.822;7.564;2023-07-02T04:19:44;16.30;;;12.80;;
4646;SDS011;2336;47.822;7.564;2023-07-02T04:22:10;22.30;;;13.07;;
4646;SDS011;2336;47.822;7.564;2023-07-02T04:24:37;16.73;;;12.73;;
4646;SDS011;2336;47.822;7.564;2023-07-02T04:27:04;17.97;;;13.40;;
4646;SDS011;2336;47.822;7.564;2023-07-02T04:29:32;20.67;;;13.90;;
4646;SDS011;2336;47.822;7.564;2023-07-02T04:31:59;17.50;;;13.60;;
4646;SDS011;2336;47.822;7.564;2023-07-02T04:34:26;20.63;;;15.20;;
4646;SDS011;2336;47.822;7.564;2023-07-02T04:36:52;17.80;;;14.63;;
4646;SDS011;2336;47.822;7.564;2023-07-02T04:39:19;19.93;;;15.40;;
4646;SDS011;2336;47.822;7.564;2023-07-02T04:41:46;22.03;;;14.70;;
4646;SDS011;2336;47.822;7.564;2023-07-02T04:44:17;23.40;;;16.17;;
4646;SDS011;2336;47.822;7.564;2023-07-02T04:46:47;21.23;;;15.90;;
4646;SDS011;2336;47.822;7.564;2023-07-02T04:49:14;19.77;;;14.63;;
4646;SDS011;2336;47.822;7.564;2023-07-02T04:51:40;20.80;;;15.93;;
4646;SDS011;2336;47.822;7.564;2023-07-02T04:54:07;22.53;;;16.67;;
4646;SDS011;2336;47.822;7.564;2023-07-02T04:56:34;21.37;;;15.97;;
4646;SDS011;2336;47.822;7.564;2023-07-02T04:59:01;23.33;;;16.70;;
4646;SDS011;2336;47.822;7.564;2023-07-02T05:01:27;27.57;;;16.70;;
4646;SDS011;2336;47.822;7.564;2023-07-02T05:03:56;22.03;;;16.73;;
4646;SDS011;2336;47.822;7.564;2023-07-02T05:06:22;27.50;;;17.10;;
4646;SDS011;2336;47.822;7.564;2023-07-02T05:08:49;22.37;;;16.57;;
4646;SDS011;2336;47.822;7.564;2023-07-02T05:11:17;21.50;;;16.90;;
4646;SDS011;2336;47.822;7.564;2023-07-02T05:13:44;27.17;;;17.00;;
4646;SDS011;2336;47.822;7.564;2023-07-02T05:16:11;18.73;;;15.30;;
4646;SDS011;2336;47.822;7.564;2023-07-02T05:18:38;21.57;;;16.10;;
4646;SDS011;2336;47.822;7.564;2023-07-02T05:21:06;22.40;;;16.27;;
4646;SDS011;2336;47.822;7.564;2023-07-02T05:23:33;22.80;;;16.90;;
4646;SDS011;2336;47.822;7.564;2023-07-02T05:26:00;30.93;;;17.60;;
4646;SDS011;2336;47.822;7.564;2023-07-02T05:28:27;25.17;;;16.53;;
4646;SDS011;2336;47.822;7.564;2023-07-02T05:30:54;23.23;;;16.00;;
4646;SDS011;2336;47.822;7.564;2023-07-02T05:33:20;20.80;;;16.93;;
4646;SDS011;2336;47.822;7.564;2023-07-02T05:35:48;22.90;;;16.90;;
4646;SDS011;2336;47.822;7.564;2023-07-02T05:38:17;22.10;;;16.37;;
4646;SDS011;2336;47.822;7.564;2023-07-02T05:40:43;25.93;;;16.90;;
4646;SDS011;2336;47.822;7.564;2023-07-02T05:43:10;25.43;;;16.20;;
4646;SDS011;2336;47.822;7.564;2023-07-02T05:45:37;22.40;;;16.77;;
4646;SDS011;2336;47.822;7.564;2023-07-02T05:48:04;20.20;;;16.57;;
4646;SDS011;2336;47.822;7.564;2023-07-02T05:50:31;24.57;;;17.40;;
4646;SDS011;2336;47.822;7.564;2023-07-02T05:52:58;22.07;;;16.40;;
4646;SDS011;2336;47.822;7.564;2023-07-02T05:55:26;22.87;;;16.93;;
4646;SDS011;2336;47.822;7.564;2023-07-02T05:57:52;21.90;;;16.40;;
4646;SDS011;2336;47.822;7.564;2023-07-02T06:00:19;25.03;;;16.40;;
4646;SDS011;2336;47.822;7.564;2023-07-02T06:02:46;24.83;;;17.00;;
4646;SDS011;2336;47.822;7.564;2023-07-02T06:05:13;24.30;;;16.63;;
4646;SDS011;2336;47.822;7.564;2023-07-02T06:07:40;23.77;;;16.57;;
4646;SDS011;2336;47.822;7.564;2023-07-02T06:10:07;19.63;;;15.67;;
4646;SDS011;2336;47.822;7.564;2023-07-02T06:12:35;24.40;;;16.10;;
4646;SDS011;2336;47.822;7.564;2023-07-02T06:15:02;25.37;;;16.77;;
4646;SDS011;2336;47.822;7.564;2023-07-02T06:17:29;25.23;;;17.33;;
4646;SDS011;2336;47.822;7.564;2023-07-02T06:19:56;24.03;;;17.23;;
4646;SDS011;2336;47.822;7.564;2023-07-02T06:22:23;22.93;;;16.33;;
4646;SDS011;2336;47.822;7.564;2023-07-02T06:24:50;23.10;;;17.53;;
4646;SDS011;2336;47.822;7.564;2023-07-02T06:27:16;22.40;;;16.33;;
4646;SDS011;2336;47.822;7.564;2023-07-02T06:29:44;24.73;;;16.80;;
4646;SDS011;2336;47.822;7.564;2023-07-02T06:32:11;26.00;;;18.00;;
4646;SDS011;2336;47.822;7.564;2023-07-02T06:34:38;22.43;;;17.27;;
4646;SDS011;2336;47.822;7.564;2023-07-02T06:37:04;24.47;;;17.80;;
4646;SDS011;2336;47.822;7.564;2023-07-02T06:39:31;26.23;;;18.67;;
4646;SDS011;2336;47.822;7.564;2023-07-02T06:41:58;24.90;;;19.60;;
4646;SDS011;2336;47.822;7.564;2023-07-02T06:44:25;23.40;;;19.37;;
4646;SDS011;2336;47.822;7.564;2023-07-02T06:46:53;23.63;;;18.30;;
4646;SDS011;2336;47.822;7.564;2023-07-02T06:49:20;27.27;;;18.10;;
4646;SDS011;2336;47.822;7.564;2023-07-02T06:51:47;25.40;;;18.63;;
4646;SDS011;2336;47.822;7.564;2023-07-02T06:54:14;24.77;;;18.60;;
4646;SDS011;2336;47.822;7.564;2023-07-02T06:56:41;25.50;;;20.20;;
4646;SDS011;2336;47.822;7.564;2023-07-02T06:59:07;25.40;;;18.73;;
4646;SDS011;2336;47.822;7.564;2023-07-02T07:01:34;25.03;;;18.80;;
4646;SDS011;2336;47.822;7.564;2023-07-02T07:04:03;24.37;;;19.87;;
4646;SDS011;2336;47.822;7.564;2023-07-02T07:06:29;30.60;;;20.33;;
4646;SDS011;2336;47.822;7.564;2023-07-02T07:08:56;31.97;;;20.77;;
4646;SDS011;2336;47.822;7.564;2023-07-02T07:11:23;29.00;;;20.37;;
4646;SDS011;2336;47.822;7.564;2023-07-02T07:13:49;28.73;;;21.23;;
4646;SDS011;2336;47.822;7.564;2023-07-02T07:16:16;27.73;;;20.67;;
4646;SDS011;2336;47.822;7.564;2023-07-02T07:18:43;31.13;;;21.27;;
4646;SDS011;2336;47.822;7.564;2023-07-02T07:21:11;28.40;;;20.20;;
4646;SDS011;2336;47.822;7.564;2023-07-02T07:23:39;29.23;;;21.20;;
4646;SDS011;2336;47.822;7.564;2023-07-02T07:26:06;25.27;;;20.50;;
4646;SDS011;2336;47.822;7.564;2023-07-02T07:28:32;31.23;;;22.17;;
4646;SDS011;2336;47.822;7.564;2023-07-02T07:30:59;28.23;;;20.10;;
4646;SDS011;2336;47.822;7.564;2023-07-02T07:33:26;29.83;;;21.23;;
4646;SDS011;2336;47.822;7.564;2023-07-02T07:35:53;31.37;;;22.43;;
4646;SDS011;2336;47.822;7.564;2023-07-02T07:38:21;32.70;;;21.70;;
4646;SDS011;2336;47.822;7.564;2023-07-02T07:40:47;27.37;;;20.80;;
4646;SDS011;2336;47.822;7.564;2023-07-02T07:43:14;28.20;;;22.10;;
4646;SDS011;2336;47.822;7.564;2023-07-02T07:45:41;28.37;;;21.80;;
4646;SDS011;2336;47.822;7.564;2023-07-02T07:48:07;25.37;;;20.97;;
4646;SDS011;2336;47.822;7.564;2023-07-02T07:50:34;29.30;;;21.90;;
4646;SDS011;2336;47.822;7.564;2023-07-02T07:53:01;29.77;;;22.73;;
4646;SDS011;2336;47.822;7.564;2023-07-02T07:55:29;29.00;;;21.17;;
4646;SDS011;2336;47.822;7.564;2023-07-02T07:57:56;30.37;;;21.97;;
4646;SDS011;2336;47.822;7.564;2023-07-02T08:00:22;30.33;;;20.97;;
4646;SDS011;2336;47.822;7.564;2023-07-02T08:02:50;29.30;;;20.90;;
4646;SDS011;2336;47.822;7.564;2023-07-02T08:05:20;29.30;;;21.07;;
4646;SDS011;2336;47.822;7.564;2023-07-02T08:07:47;25.57;;;20.63;;
4646;SDS011;2336;47.822;7.564;2023-07-02T08:10:14;30.67;;;21.90;;
4646;SDS011;2336;47.822;7.564;2023-07-02T08:12:42;29.20;;;22.50;;
4646;SDS011;2336;47.822;7.564;2023-07-02T08:15:08;29.03;;;21.47;;
4646;SDS011;2336;47.822;7.564;2023-07-02T08:17:35;29.57;;;20.97;;
4646;SDS011;2336;47.822;7.564;2023-07-02T08:20:02;36.67;;;23.57;;
4646;SDS011;2336;47.822;7.564;2023-07-02T08:22:34;31.80;;;22.33;;
4646;SDS011;2336;47.822;7.564;2023-07-02T08:25:01;29.70;;;21.73;;
4646;SDS011;2336;47.822;7.564;2023-07-02T08:27:27;33.03;;;23.20;;
4646;SDS011;2336;47.822;7.564;2023-07-02T08:29:55;33.60;;;22.27;;
4646;SDS011;2336;47.822;7.564;2023-07-02T08:32:22;31.90;;;21.57;;
4646;SDS011;2336;47.822;7.564;2023-07-02T08:34:49;28.60;;;24.00;;
4646;SDS011;2336;47.822;7.564;2023-07-02T08:37:16;32.90;;;23.03;;
4646;SDS011;2336;47.822;7.564;2023-07-02T08:39:43;28.10;;;22.00;;
4646;SDS011;2336;47.822;7.564;2023-07-02T08:42:10;28.37;;;20.80;;
4646;SDS011;2336;47.822;7.564;2023-07-02T08:44:36;30.33;;;21.30;;
4646;SDS011;2336;47.822;7.564;2023-07-02T08:47:05;27.57;;;22.47;;
4646;SDS011;2336;47.822;7.564;2023-07-02T08:49:32;28.63;;;21.97;;
4646;SDS011;2336;47.822;7.564;2023-07-02T08:52:06;27.73;;;21.80;;
4646;SDS011;2336;47.822;7.564;2023-07-02T08:54:33;27.90;;;21.40;;
4646;SDS011;2336;47.822;7.564;2023-07-02T08:57:00;26.53;;;21.73;;
4646;SDS011;2336;47.822;7.564;2023-07-02T08:59:30;30.50;;;21.83;;
4646;SDS011;2336;47.822;7.564;2023-07-02T09:01:56;28.50;;;21.63;;
4646;SDS011;2336;47.822;7.564;2023-07-02T09:04:23;27.97;;;22.17;;
4646;SDS011;2336;47.822;7.564;2023-07-02T09:07:02;31.63;;;21.97;;
4646;SDS011;2336;47.822;7.564;2023-07-02T09:09:31;32.03;;;22.30;;
4646;SDS011;2336;47.822;7.564;2023-07-02T09:11:58;37.70;;;22.37;;
4646;SDS011;2336;47.822;7.564;2023-07-02T09:14:27;33.87;;;22.40;;
4646;SDS011;2336;47.822;7.564;2023-07-02T09:17:03;30.07;;;21.80;;
4646;SDS011;2336;47.822;7.564;2023-07-02T09:19:31;25.70;;;21.27;;
4646;SDS011;2336;47.822;7.564;2023-07-02T09:21:58;28.67;;;21.10;;
4646;SDS011;2336;47.822;7.564;2023-07-02T09:24:26;31.10;;;21.80;;
4646;SDS011;2336;47.822;7.564;2023-07-02T09:26:56;31.07;;;22.10;;
4646;SDS011;2336;47.822;7.564;2023-07-02T09:29:24;27.13;;;21.80;;
4646;SDS011;2336;47.822;7.564;2023-07-02T09:31:53;30.77;;;23.40;;
4646;SDS011;2336;47.822;7.564;2023-07-02T09:34:25;26.40;;;20.13;;
4646;SDS011;2336;47.822;7.564;2023-07-02T09:36:53;27.83;;;21.40;;
4646;SDS011;2336;47.822;7.564;2023-07-02T09:39:26;26.43;;;21.53;;
4646;SDS011;2336;47.822;7.564;2023-07-02T09:41:56;28.07;;;21.67;;
4646;SDS011;2336;47.822;7.564;2023-07-02T09:44:25;25.00;;;20.40;;
4646;SDS011;2336;47.822;7.564;2023-07-02T09:46:56;27.43;;;21.30;;
4646;SDS011;2336;47.822;7.564;2023-07-02T09:49:28;30.00;;;22.97;;
4646;SDS011;2336;47.822;7.564;2023-07-02T09:51:58;32.40;;;21.50;;
4646;SDS011;2336;47.822;7.564;2023-07-02T09:54:26;30.77;;;22.33;;
4646;SDS011;2336;47.822;7.564;2023-07-02T09:56:53;27.93;;;20.80;;
4646;SDS011;2336;47.822;7.564;2023-07-02T09:59:21;26.70;;;21.20;;
4646;SDS011;2336;47.822;7.564;2023-07-02T10:01:49;24.70;;;20.60;;
4646;SDS011;2336;47.822;7.564;2023-07-02T10:04:17;25.20;;;20.00;;
4646;SDS011;2336;47.822;7.564;2023-07-02T10:06:45;28.70;;;19.57;;
4646;SDS011;2336;47.822;7.564;2023-07-02T10:09:13;26.97;;;20.00;;
4646;SDS011;2336;47.822;7.564;2023-07-02T10:11:41;24.83;;;19.70;;
4646;SDS011;2336;47.822;7.564;2023-07-02T10:14:09;22.63;;;18.47;;
4646;SDS011;2336;47.822;7.564;2023-07-02T10:16:47;22.17;;;18.60;;
4646;SDS011;2336;47.822;7.564;2023-07-02T10:19:15;21.80;;;18.50;;
4646;SDS011;2336;47.822;7.564;2023-07-02T10:21:42;21.40;;;17.87;;
4646;SDS011;2336;47.822;7.564;2023-07-02T10:24:11;26.63;;;18.70;;
4646;SDS011;2336;47.822;7.564;2023-07-02T10:26:39;23.73;;;18.70;;
4646;SDS011;2336;47.822;7.564;2023-07-02T10:29:19;28.63;;;20.40;;
4646;SDS011;2336;47.822;7.564;2023-07-02T10:31:50;22.90;;;18.17;;
4646;SDS011;2336;47.822;7.564;2023-07-02T10:34:27;24.13;;;17.97;;
4646;SDS011;2336;47.822;7.564;2023-07-02T10:36:55;21.63;;;17.87;;
4646;SDS011;2336;47.822;7.564;2023-07-02T10:39:25;19.30;;;17.20;;
4646;SDS011;2336;47.822;7.564;2023-07-02T10:42:03;21.23;;;18.57;;
4646;SDS011;2336;47.822;7.564;2023-07-02T10:44:32;22.13;;;17.53;;
4646;SDS011;2336;47.822;7.564;2023-07-02T10:47:00;23.43;;;18.17;;
4646;SDS011;2336;47.822;7.564;2023-07-02T10:49:34;20.60;;;16.30;;
4646;SDS011;2336;47.822;7.564;2023-07-02T10:52:03;18.93;;;16.70;;
4646;SDS011;2336;47.822;7.564;2023-07-02T10:54:40;23.23;;;17.83;;
4646;SDS011;2336;47.822;7.564;2023-07-02T10:57:10;19.03;;;17.03;;
4646;SDS011;2336;47.822;7.564;2023-07-02T10:59:47;19.87;;;15.87;;
4646;SDS011;2336;47.822;7.564;2023-07-02T11:02:17;22.10;;;17.97;;
4646;SDS011;2336;47.822;7.564;2023-07-02T11:04:45;20.47;;;16.10;;
4646;SDS011;2336;47.822;7.564;2023-07-02T11:07:14;21.80;;;17.40;;
4646;SDS011;2336;47.822;7.564;2023-07-02T11:09:51;21.90;;;16.97;;
4646;SDS011;2336;47.822;7.564;2023-07-02T11:12:32;18.90;;;16.13;;
4646;SDS011;2336;47.822;7.564;2023-07-02T11:15:16;19.70;;;16.37;;
4646;SDS011;2336;47.822;7.564;2023-07-02T11:17:46;18.07;;;16.03;;
4646;SDS011;2336;47.822;7.564;2023-07-02T11:20:15;21.90;;;16.33;;
4646;SDS011;2336;47.822;7.564;2023-07-02T11:22:43;19.07;;;16.03;;
4646;SDS011;2336;47.822;7.564;2023-07-02T11:25:13;23.90;;;17.60;;
4646;SDS011;2336;47.822;7.564;2023-07-02T11:27:42;22.23;;;17.50;;
4646;SDS011;2336;47.822;7.564;2023-07-02T11:30:10;17.90;;;15.93;;
4646;SDS011;2336;47.822;7.564;2023-07-02T11:32:49;20.27;;;16.60;;
4646;SDS011;2336;47.822;7.564;2023-07-02T11:35:17;22.70;;;17.70;;
4646;SDS011;2336;47.822;7.564;2023-07-02T11:37:44;18.67;;;15.87;;
4646;SDS011;2336;47.822;7.564;2023-07-02T11:40:11;22.80;;;16.90;;
4646;SDS011;2336;47.822;7.564;2023-07-02T11:42:38;29.70;;;17.80;;
4646;SDS011;2336;47.822;7.564;2023-07-02T11:45:06;24.30;;;18.27;;
4646;SDS011;2336;47.822;7.564;2023-07-02T11:47:34;21.07;;;18.20;;
4646;SDS011;2336;47.822;7.564;2023-07-02T11:50:01;21.27;;;17.73;;
4646;SDS011;2336;47.822;7.564;2023-07-02T11:52:31;18.27;;;16.23;;
4646;SDS011;2336;47.822;7.564;2023-07-02T11:54:58;20.77;;;18.10;;
4646;SDS011;2336;47.822;7.564;2023-07-02T11:57:25;19.87;;;16.80;;
4646;SDS011;2336;47.822;7.564;2023-07-02T11:59:51;18.47;;;16.30;;
4646;SDS011;2336;47.822;7.564;2023-07-02T12:02:18;19.23;;;17.10;;
4646;SDS011;2336;47.822;7.564;2023-07-02T12:04:47;19.23;;;17.23;;
4646;SDS011;2336;47.822;7.564;2023-07-02T12:07:13;25.27;;;18.23;;
4646;SDS011;2336;47.822;7.564;2023-07-02T12:09:40;19.20;;;17.20;;
4646;SDS011;2336;47.822;7.564;2023-07-02T12:12:07;18.67;;;16.53;;
4646;SDS011;2336;47.822;7.564;2023-07-02T12:14:34;17.87;;;15.83;;
4646;SDS011;2336;47.822;7.564;2023-07-02T12:17:02;21.80;;;18.60;;
4646;SDS011;2336;47.822;7.564;2023-07-02T12:19:29;23.40;;;16.67;;
4646;SDS011;2336;47.822;7.564;2023-07-02T12:21:57;20.73;;;18.50;;
4646;SDS011;2336;47.822;7.564;2023-07-02T12:27:12;18.53;;;16.53;;
4646;SDS011;2336;47.822;7.564;2023-07-02T12:29:39;19.53;;;15.13;;
4646;SDS011;2336;47.822;7.564;2023-07-02T12:32:06;24.13;;;16.13;;
4646;SDS011;2336;47.822;7.564;2023-07-02T12:34:33;16.80;;;14.63;;
4646;SDS011;2336;47.822;7.564;2023-07-02T12:37:01;19.77;;;15.80;;
4646;SDS011;2336;47.822;7.564;2023-07-02T12:39:28;17.70;;;14.43;;
4646;SDS011;2336;47.822;7.564;2023-07-02T12:41:55;18.53;;;15.93;;
4646;SDS011;2336;47.822;7.564;2023-07-02T12:47:23;18.03;;;16.13;;
4646;SDS011;2336;47.822;7.564;2023-07-02T12:49:50;21.03;;;16.13;;
4646;SDS011;2336;47.822;7.564;2023-07-02T12:52:18;18.83;;;15.60;;
4646;SDS011;2336;47.822;7.564;2023-07-02T12:54:44;17.83;;;16.13;;
4646;SDS011;2336;47.822;7.564;2023-07-02T12:57:11;17.93;;;16.10;;
4646;SDS011;2336;47.822;7.564;2023-07-02T12:59:38;17.53;;;15.63;;
4646;SDS011;2336;47.822;7.564;2023-07-02T13:02:05;21.13;;;17.07;;
4646;SDS011;2336;47.822;7.564;2023-07-02T13:04:32;19.73;;;17.20;;
4646;SDS011;2336;47.822;7.564;2023-07-02T13:06:59;19.13;;;17.00;;
4646;SDS011;2336;47.822;7.564;2023-07-02T13:09:27;22.07;;;16.70;;
4646;SDS011;2336;47.822;7.564;2023-07-02T13:11:54;23.43;;;18.13;;
4646;SDS011;2336;47.822;7.564;2023-07-02T13:14:20;25.70;;;18.07;;
4646;SDS011;2336;47.822;7.564;2023-07-02T13:16:47;23.03;;;18.30;;
4646;SDS011;2336;47.822;7.564;2023-07-02T13:19:14;20.50;;;16.60;;
4646;SDS011;2336;47.822;7.564;2023-07-02T13:21:41;21.97;;;17.33;;
4646;SDS011;2336;47.822;7.564;2023-07-02T13:24:08;19.90;;;17.13;;
4646;SDS011;2336;47.822;7.564;2023-07-02T13:26:36;18.60;;;16.60;;
4646;SDS011;2336;47.822;7.564;2023-07-02T13:29:02;19.57;;;17.17;;
4646;SDS011;2336;47.822;7.564;2023-07-02T13:31:30;20.93;;;18.20;;
4646;SDS011;2336;47.822;7.564;2023-07-02T13:33:57;23.20;;;18.27;;
4646;SDS011;2336;47.822;7.564;2023-07-02T13:36:23;20.00;;;17.07;;
4646;SDS011;2336;47.822;7.564;2023-07-02T13:38:53;24.70;;;18.23;;
4646;SDS011;2336;47.822;7.564;2023-07-02T13:41:20;19.67;;;16.47;;
4646;SDS011;2336;47.822;7.564;2023-07-02T13:43:49;22.20;;;17.27;;
4646;SDS011;2336;47.822;7.564;2023-07-02T13:46:16;19.23;;;16.67;;
4646;SDS011;2336;47.822;7.564;2023-07-02T13:48:42;18.03;;;16.00;;
4646;SDS011;2336;47.822;7.564;2023-07-02T13:51:09;20.30;;;17.53;;
4646;SDS011;2336;47.822;7.564;2023-07-02T13:53:36;20.73;;;17.73;;
4646;SDS011;2336;47.822;7.564;2023-07-02T13:56:03;19.50;;;17.50;;
4646;SDS011;2336;47.822;7.564;2023-07-02T14:01:13;22.93;;;18.43;;
4646;SDS011;2336;47.822;7.564;2023-07-02T14:03:39;18.60;;;16.63;;
4646;SDS011;2336;47.822;7.564;2023-07-02T14:06:06;19.10;;;16.70;;
4646;SDS011;2336;47.822;7.564;2023-07-02T14:08:34;21.17;;;17.43;;
4646;SDS011;2336;47.822;7.564;2023-07-02T14:11:01;19.17;;;16.80;;
4646;SDS011;2336;47.822;7.564;2023-07-02T14:16:51;18.10;;;16.00;;
4646;SDS011;2336;47.822;7.564;2023-07-02T14:19:18;17.40;;;15.70;;
4646;SDS011;2336;47.822;7.564;2023-07-02T14:21:45;19.63;;;17.13;;
4646;SDS011;2336;47.822;7.564;2023-07-02T14:24:12;19.63;;;16.33;;
4646;SDS011;2336;47.822;7.564;2023-07-02T14:26:39;18.33;;;16.20;;
4646;SDS011;2336;47.822;7.564;2023-07-02T14:29:06;19.77;;;16.57;;
4646;SDS011;2336;47.822;7.564;2023-07-02T14:31:32;18.10;;;16.20;;
4646;SDS011;2336;47.822;7.564;2023-07-02T14:34:01;19.93;;;16.60;;
4646;SDS011;2336;47.822;7.564;2023-07-02T14:36:27;21.97;;;17.07;;
4646;SDS011;2336;47.822;7.564;2023-07-02T14:38:54;25.10;;;16.63;;
4646;SDS011;2336;47.822;7.564;2023-07-02T14:41:21;17.23;;;14.93;;
4646;SDS011;2336;47.822;7.564;2023-07-02T14:43:48;18.37;;;15.70;;
4646;SDS011;2336;47.822;7.564;2023-07-02T14:46:15;16.90;;;15.10;;
4646;SDS011;2336;47.822;7.564;2023-07-02T14:48:42;17.20;;;15.33;;
4646;SDS011;2336;47.822;7.564;2023-07-02T14:51:10;18.90;;;15.53;;
4646;SDS011;2336;47.822;7.564;2023-07-02T14:53:37;22.07;;;16.30;;
4646;SDS011;2336;47.822;7.564;2023-07-02T14:56:04;20.57;;;15.80;;
4646;SDS011;2336;47.822;7.564;2023-07-02T14:58:31;19.43;;;16.27;;
4646;SDS011;2336;47.822;7.564;2023-07-02T15:00:58;17.23;;;15.40;;
4646;SDS011;2336;47.822;7.564;2023-07-02T15:03:31;16.57;;;14.77;;
4646;SDS011;2336;47.822;7.564;2023-07-02T15:06:10;16.53;;;14.80;;
4646;SDS011;2336;47.822;7.564;2023-07-02T15:08:38;16.17;;;14.63;;
4646;SDS011;2336;47.822;7.564;2023-07-02T15:11:05;16.37;;;14.53;;